Time;durP1;ratioP1;P1;durP2;ratioP2;P2;SDS_P1;SDS_P2;PMS_P1;PMS_P2;Temp;Humidity;BMP_temperature;BMP_pressure;BME280_temperature;BME280_humidity;BME280_pressure;Samples;Min_cycle;Max_cycle;Signal;HPM_P1;HPM_P2
2021/07/03 00:01:55;;;;;;;7.97;4.05;;;17.60;99.90;;;16.49;97.07;101165.59;5003101;28;20040;-74
2021/07/03 00:04:21;;;;;;;6.68;3.80;;;17.50;99.90;;;16.44;97.60;101163.25;5019548;28;20021;-74
2021/07/03 00:06:48;;;;;;;10.68;4.15;;;17.50;99.90;;;16.43;97.34;101160.69;5020842;28;20047;-74
2021/07/03 00:09:14;;;;;;;7.25;4.20;;;17.50;99.90;;;16.37;97.58;101167.22;5004583;28;20551;-74
2021/07/03 00:11:40;;;;;;;6.50;3.60;;;17.40;99.90;;;16.38;96.62;101168.94;5004253;28;20033;-74
2021/07/03 00:14:07;;;;;;;9.07;4.18;;;17.40;99.90;;;16.36;95.71;101165.53;5003960;28;20064;-74
2021/07/03 00:16:34;;;;;;;7.72;3.70;;;17.40;99.90;;;16.35;95.88;101159.38;5020853;28;20033;-74
2021/07/03 00:19:00;;;;;;;9.70;3.80;;;17.40;99.90;;;16.32;95.44;101167.53;5020883;28;20068;-74
2021/07/03 00:21:26;;;;;;;7.18;3.55;;;17.40;99.90;;;16.33;94.83;101163.09;5022299;28;20033;-74
2021/07/03 00:23:52;;;;;;;7.13;3.70;;;17.40;99.90;;;16.30;94.70;101166.78;5003716;28;20063;-74
2021/07/03 00:26:19;;;;;;;7.30;3.40;;;17.40;99.90;;;16.29;94.36;101174.84;5030944;28;20032;-74
2021/07/03 00:28:45;;;;;;;4.80;3.22;;;17.40;99.90;;;16.26;93.67;101169.72;5019909;28;20078;-74
2021/07/03 00:31:11;;;;;;;5.20;3.25;;;17.30;99.90;;;16.24;93.39;101171.63;5021780;28;20099;-74
2021/07/03 00:33:37;;;;;;;7.25;3.08;;;17.30;99.90;;;16.21;92.56;101178.00;5011587;28;20025;-74
2021/07/03 00:36:03;;;;;;;6.85;3.30;;;17.20;99.90;;;16.18;92.72;101175.53;5020000;28;20033;-74
2021/07/03 00:38:29;;;;;;;5.45;3.45;;;17.30;99.90;;;16.18;91.49;101172.88;5005338;28;20029;-74
2021/07/03 00:40:55;;;;;;;6.22;3.53;;;17.30;99.90;;;16.16;91.02;101175.63;5019594;28;20017;-74
2021/07/03 00:43:21;;;;;;;7.28;2.83;;;17.20;99.90;;;16.12;91.47;101174.09;5020308;28;20068;-74
2021/07/03 00:45:47;;;;;;;4.75;3.30;;;17.20;99.90;;;16.11;91.84;101172.41;5017952;28;20596;-74
2021/07/03 00:48:13;;;;;;;4.72;2.78;;;17.10;99.90;;;16.05;91.54;101178.09;5022369;28;20071;-74
2021/07/03 00:50:39;;;;;;;5.10;2.88;;;17.10;99.90;;;16.02;92.01;101172.97;5021496;28;20135;-74
2021/07/03 00:53:05;;;;;;;8.35;3.10;;;17.10;99.90;;;15.96;91.80;101181.31;5020880;28;20443;-74
2021/07/03 00:55:32;;;;;;;7.72;2.85;;;17.00;99.90;;;15.88;92.16;101175.66;5020621;28;20128;-74
2021/07/03 00:57:58;;;;;;;5.97;2.75;;;16.90;99.90;;;15.81;92.73;101175.19;5032582;28;20075;-74
2021/07/03 01:00:24;;;;;;;8.05;2.97;;;16.80;99.90;;;15.75;93.35;101175.53;5003535;28;20528;-74
2021/07/03 01:02:50;;;;;;;8.98;3.05;;;16.80;99.90;;;15.68;93.25;101171.50;5020684;28;20606;-74
2021/07/03 01:05:17;;;;;;;4.97;3.20;;;16.70;99.90;;;15.63;93.78;101173.59;5030402;28;20029;-74
2021/07/03 01:07:44;;;;;;;6.32;2.90;;;16.60;99.90;;;15.55;94.07;101158.13;5020066;28;20078;-74
2021/07/03 01:10:24;;;;;;;4.80;2.83;;;16.60;99.90;;;15.49;94.29;101172.63;5010881;28;20079;-74
2021/07/03 01:12:50;;;;;;;6.07;2.80;;;16.60;99.90;;;15.49;94.20;101175.28;5020510;28;20430;-74
2021/07/03 01:15:18;;;;;;;6.30;3.08;;;16.60;99.90;;;15.52;94.69;101175.09;5021101;28;20485;-74
2021/07/03 01:17:45;;;;;;;7.07;3.00;;;16.90;99.90;;;15.47;95.11;101165.72;5021829;28;20072;-74
2021/07/03 01:20:17;;;;;;;4.90;2.95;;;16.50;99.90;;;15.40;95.41;101167.88;5017143;28;20033;-74
2021/07/03 01:22:45;;;;;;;4.80;2.88;;;16.50;99.90;;;15.36;95.45;101164.56;5020765;28;20063;-74
2021/07/03 01:25:14;;;;;;;11.32;2.92;;;16.40;99.90;;;15.31;95.87;101169.28;5019422;28;20058;-74
2021/07/03 01:27:40;;;;;;;10.68;3.40;;;16.40;99.90;;;15.26;95.81;101167.84;5018872;28;20036;-74
2021/07/03 01:30:10;;;;;;;5.45;3.10;;;16.30;99.90;;;15.19;96.67;101170.00;5001237;28;20090;-74
2021/07/03 01:32:36;;;;;;;7.25;3.25;;;16.30;99.90;;;15.14;97.14;101166.75;5021542;28;20063;-74
2021/07/03 01:35:04;;;;;;;7.22;4.00;;;16.20;99.90;;;15.08;97.42;101162.69;5008798;28;20063;-74
2021/07/03 01:37:31;;;;;;;6.22;3.33;;;16.10;99.90;;;15.05;97.45;101159.34;5020954;28;20601;-74
2021/07/03 01:39:57;;;;;;;7.63;3.33;;;16.10;99.90;;;15.02;97.77;101156.88;5017927;28;20507;-74
2021/07/03 01:42:23;;;;;;;4.45;2.80;;;16.10;99.90;;;14.98;97.91;101170.31;5021346;28;20063;-73
2021/07/03 01:44:49;;;;;;;9.05;3.67;;;16.10;99.90;;;14.91;97.92;101171.59;5022191;28;20480;-74
2021/07/03 01:47:16;;;;;;;7.95;3.20;;;16.00;99.90;;;14.89;97.97;101165.53;5024649;28;20090;-74
2021/07/03 01:49:45;;;;;;;8.55;3.22;;;16.00;99.90;;;14.86;98.08;101155.13;5024361;28;20059;-74
2021/07/03 01:52:17;;;;;;;9.65;3.40;;;15.90;99.90;;;14.82;98.23;101172.16;5007843;28;20456;-74
2021/07/03 01:54:43;;;;;;;6.93;3.63;;;15.90;99.90;;;14.81;98.86;101169.56;5023002;28;20049;-73
2021/07/03 01:57:08;;;;;;;5.63;3.28;;;15.90;99.90;;;14.76;98.62;101162.72;5022549;28;20419;-74
2021/07/03 01:59:34;;;;;;;12.98;4.78;;;15.80;99.90;;;14.75;99.02;101157.50;5025082;28;20055;-74
2021/07/03 02:02:03;;;;;;;8.88;3.90;;;15.80;99.90;;;14.72;98.79;101161.19;5022085;28;20124;-74
2021/07/03 02:04:30;;;;;;;5.68;3.70;;;15.80;99.90;;;14.75;99.28;101162.81;5025317;28;20032;-74
2021/07/03 02:06:57;;;;;;;8.18;3.42;;;15.80;99.90;;;14.71;99.17;101163.97;5006347;28;20143;-74
2021/07/03 02:09:24;;;;;;;10.60;3.75;;;15.90;99.90;;;14.73;99.52;101159.44;5024223;28;20481;-74
2021/07/03 02:11:50;;;;;;;7.07;3.42;;;15.80;99.90;;;14.72;99.70;101166.50;5024037;28;20067;-74
2021/07/03 02:14:17;;;;;;;6.32;3.17;;;15.80;99.90;;;14.74;99.94;101161.13;5014099;28;20072;-74
2021/07/03 02:16:43;;;;;;;9.13;3.58;;;15.80;99.90;;;14.70;99.70;101157.78;5020230;28;20067;-74
2021/07/03 02:19:09;;;;;;;8.02;3.65;;;15.80;99.90;;;14.69;99.92;101155.25;5023809;28;20180;-74
2021/07/03 02:21:36;;;;;;;7.00;3.67;;;15.80;99.90;;;14.71;100.00;101158.66;5023282;28;20067;-74
2021/07/03 02:24:03;;;;;;;14.70;4.03;;;15.80;99.90;;;14.72;100.00;101163.84;5023980;28;20067;-74
2021/07/03 02:26:29;;;;;;;8.73;4.18;;;15.80;99.90;;;14.76;99.96;101153.94;4996951;28;20055;-74
2021/07/03 02:28:55;;;;;;;6.57;3.78;;;15.90;99.90;;;14.80;100.00;101155.47;5024374;28;20087;-74
2021/07/03 02:31:22;;;;;;;6.40;4.13;;;16.00;99.90;;;14.84;100.00;101157.00;5022153;28;20112;-74
2021/07/03 02:33:48;;;;;;;10.23;4.10;;;16.00;99.90;;;14.87;100.00;101154.16;5021008;28;20146;-74
2021/07/03 02:36:14;;;;;;;10.30;4.10;;;16.00;99.90;;;14.92;99.78;101144.16;5000412;28;20067;-74
2021/07/03 02:38:41;;;;;;;10.55;4.45;;;16.10;99.90;;;14.96;99.96;101143.00;5029953;28;20229;-74
2021/07/03 02:41:08;;;;;;;8.05;3.97;;;16.20;99.90;;;15.00;100.00;101145.50;5011913;28;20116;-74
2021/07/03 02:43:34;;;;;;;8.63;4.35;;;16.10;99.90;;;15.01;99.71;101142.78;5040869;28;20045;-74
2021/07/03 02:46:00;;;;;;;9.27;4.95;;;16.20;99.90;;;15.01;99.74;101145.44;5005018;28;20086;-74
2021/07/03 02:48:26;;;;;;;7.70;3.67;;;16.20;99.90;;;15.03;99.81;101147.97;5014906;28;20525;-74
2021/07/03 02:50:52;;;;;;;6.15;4.13;;;16.20;99.90;;;15.09;99.62;101137.84;4997263;28;20064;-74
2021/07/03 02:53:18;;;;;;;8.60;4.70;;;16.20;99.90;;;15.06;99.75;101139.84;5020036;28;20083;-74
2021/07/03 02:55:44;;;;;;;7.45;4.40;;;16.20;99.90;;;15.07;99.57;101141.53;5024449;28;20055;-74
2021/07/03 02:58:10;;;;;;;6.95;4.35;;;16.30;99.90;;;15.09;99.93;101140.50;5022957;28;20228;-74
2021/07/03 03:00:36;;;;;;;8.27;4.38;;;16.20;99.90;;;15.10;99.90;101139.56;5020318;28;20052;-74
2021/07/03 03:03:01;;;;;;;8.57;4.65;;;16.30;99.90;;;15.10;99.96;101141.38;5022092;28;20009;-74
2021/07/03 03:05:28;;;;;;;9.40;4.65;;;16.30;99.90;;;15.13;99.60;101147.34;5002607;28;20055;-74
2021/07/03 03:07:55;;;;;;;10.25;4.43;;;16.30;99.90;;;15.11;100.00;101141.25;5005939;28;20021;-74
2021/07/03 03:10:21;;;;;;;10.85;4.25;;;16.30;99.90;;;15.12;100.00;101144.78;5005517;28;20549;-74
2021/07/03 03:12:48;;;;;;;7.40;4.90;;;16.30;99.90;;;15.12;99.69;101148.28;5003997;28;20061;-74
2021/07/03 03:15:15;;;;;;;8.90;4.57;;;16.30;99.90;;;15.13;99.78;101149.16;5023444;28;20090;-74
2021/07/03 03:17:42;;;;;;;10.38;4.57;;;16.30;99.90;;;15.11;99.71;101143.91;5003763;28;20128;-74
2021/07/03 03:20:12;;;;;;;7.57;4.88;;;16.30;99.90;;;15.10;99.85;101152.84;5023405;28;20563;-74
2021/07/03 03:22:42;;;;;;;8.63;4.80;;;16.20;99.90;;;15.10;99.95;101147.53;5005101;28;20055;-74
2021/07/03 03:25:09;;;;;;;8.73;4.85;;;16.30;99.90;;;15.12;100.00;101147.44;5023867;28;20201;-74
2021/07/03 03:27:35;;;;;;;7.35;4.75;;;16.30;99.90;;;15.11;100.00;101145.72;5020632;28;20436;-74
2021/07/03 03:30:01;;;;;;;10.68;5.07;;;16.30;99.90;;;15.13;100.00;101141.19;5022031;28;20068;-74
2021/07/03 03:32:27;;;;;;;10.40;4.68;;;16.30;99.90;;;15.14;99.94;101150.84;5031857;28;20063;-74
2021/07/03 03:34:53;;;;;;;9.55;5.05;;;16.30;99.90;;;15.12;100.00;101143.00;5016514;28;20068;-74
2021/07/03 03:37:19;;;;;;;15.50;5.05;;;16.30;99.90;;;15.14;100.00;101142.88;5032790;28;20078;-74
2021/07/03 03:39:45;;;;;;;10.27;4.85;;;16.30;99.90;;;15.15;100.00;101140.16;5021718;28;20150;-74
2021/07/03 03:42:10;;;;;;;12.25;5.38;;;16.30;99.90;;;15.21;100.00;101136.28;5003980;28;20044;-74
2021/07/03 03:44:36;;;;;;;13.10;5.13;;;16.40;99.90;;;15.22;100.00;101132.69;5022834;28;20059;-74
2021/07/03 03:47:03;;;;;;;12.30;4.60;;;16.30;99.90;;;15.22;100.00;101132.69;5029343;28;20048;-74
2021/07/03 03:49:29;;;;;;;9.43;4.70;;;16.40;99.90;;;15.24;100.00;101136.09;5022420;28;20094;-74
2021/07/03 03:51:55;;;;;;;8.35;4.82;;;16.40;99.90;;;15.19;100.00;101138.19;5022895;28;20091;-74
2021/07/03 03:54:22;;;;;;;10.88;5.55;;;16.40;99.90;;;15.25;100.00;101136.94;5019996;28;20040;-74
2021/07/03 03:57:20;;;;;;;10.02;4.97;;;16.50;99.90;;;15.32;99.54;101133.00;5023162;28;20048;-74
2021/07/03 03:59:34;;;;;;;10.35;5.03;;;16.40;99.90;;;15.28;99.70;101129.66;5022694;28;20086;-74
2021/07/03 04:02:01;;;;;;;8.57;4.97;;;16.50;99.90;;;15.32;99.71;101133.00;5022451;28;20055;-74
2021/07/03 04:04:27;;;;;;;11.23;4.75;;;16.50;99.90;;;15.35;99.46;101135.44;5018969;28;20071;-74
2021/07/03 04:06:53;;;;;;;7.68;4.85;;;16.50;99.90;;;15.31;99.42;101147.19;5038251;28;20056;-74
2021/07/03 04:09:18;;;;;;;14.90;5.28;;;16.50;99.90;;;15.32;99.56;101143.59;5021088;28;20025;-74
2021/07/03 04:11:44;;;;;;;12.13;4.90;;;16.50;99.90;;;15.31;99.41;101147.19;5021599;28;20044;-74
2021/07/03 04:14:10;;;;;;;9.50;4.53;;;16.50;99.90;;;15.32;99.48;101146.25;5030722;28;20535;-74
2021/07/03 04:16:36;;;;;;;9.55;4.90;;;16.50;99.90;;;15.37;99.17;101144.16;5022115;28;20503;-74
2021/07/03 04:19:02;;;;;;;12.60;4.78;;;16.50;99.90;;;15.34;98.68;101144.38;5022009;28;20068;-74
2021/07/03 04:21:28;;;;;;;7.63;4.28;;;16.50;99.90;;;15.36;99.36;101140.69;5019746;28;20045;-74
2021/07/03 04:23:54;;;;;;;13.23;4.80;;;16.50;99.90;;;15.30;99.94;101130.41;5021471;28;20121;-74
2021/07/03 04:26:19;;;;;;;7.68;4.55;;;16.40;99.90;;;15.22;100.00;101135.31;5021701;28;20056;-74
2021/07/03 04:28:45;;;;;;;8.80;4.50;;;16.50;99.90;;;15.34;99.90;101131.09;5017563;28;20051;-74
2021/07/03 04:31:11;;;;;;;7.82;5.00;;;16.50;99.90;;;15.39;100.00;101137.81;5015654;28;20036;-74
2021/07/03 04:33:37;;;;;;;12.52;5.40;;;16.60;99.90;;;15.41;99.71;101135.09;5016024;28;20036;-74
2021/07/03 04:36:04;;;;;;;8.10;4.70;;;16.60;99.90;;;15.43;99.83;101138.50;4999427;28;20129;-74
2021/07/03 04:38:29;;;;;;;10.23;4.93;;;16.60;99.90;;;15.41;99.54;101139.53;5017263;28;20070;-74
2021/07/03 04:40:55;;;;;;;8.68;5.00;;;16.60;99.90;;;15.44;100.00;101142.00;5012455;28;20064;-74
2021/07/03 04:43:21;;;;;;;10.52;4.93;;;16.60;99.90;;;15.52;99.62;101137.09;5009836;28;20022;-74
2021/07/03 04:45:47;;;;;;;9.38;5.00;;;16.70;99.90;;;15.56;99.71;101138.63;5020394;28;20025;-74
2021/07/03 04:48:13;;;;;;;10.63;4.88;;;16.70;99.90;;;15.59;99.45;101133.97;5019078;28;20058;-74
2021/07/03 04:50:39;;;;;;;10.00;5.20;;;16.80;99.90;;;15.66;99.05;101138.88;5021612;28;20029;-74
2021/07/03 04:53:05;;;;;;;8.82;4.22;;;16.90;99.90;;;15.72;98.65;101142.09;5019726;28;20516;-74
2021/07/03 04:55:31;;;;;;;7.45;4.70;;;16.90;99.90;;;15.78;98.77;101140.81;5022323;28;20053;-74
2021/07/03 04:57:57;;;;;;;7.90;4.93;;;17.00;99.90;;;15.83;98.73;101137.88;5021750;28;20098;-74
2021/07/03 05:00:23;;;;;;;9.98;5.57;;;17.00;99.90;;;15.87;98.16;101137.59;5002165;28;20040;-74
2021/07/03 05:02:49;;;;;;;6.53;4.28;;;17.10;99.90;;;15.94;98.46;101143.41;5019895;28;20053;-74
2021/07/03 05:05:15;;;;;;;9.55;5.45;;;17.10;99.90;;;15.97;97.46;101137.88;5018237;28;20572;-74
2021/07/03 05:07:43;;;;;;;11.75;4.75;;;17.20;99.90;;;16.09;97.44;101141.56;5004978;28;20028;-74
2021/07/03 05:10:11;;;;;;;8.85;5.10;;;17.20;99.90;;;16.15;97.45;101135.88;5001717;28;20055;-74
2021/07/03 05:12:37;;;;;;;12.35;5.15;;;17.30;99.90;;;16.14;97.19;101135.03;5013839;28;20047;-74
2021/07/03 05:15:05;;;;;;;7.38;4.30;;;17.30;99.90;;;16.19;97.04;101140.88;5019000;28;20037;-74
2021/07/03 05:17:31;;;;;;;7.60;4.03;;;17.20;99.90;;;16.15;96.66;101144.69;5019975;28;20052;-74
2021/07/03 05:19:56;;;;;;;9.38;4.35;;;17.20;99.90;;;16.14;96.50;101145.66;5025242;28;20477;-74
2021/07/03 05:22:23;;;;;;;12.18;4.43;;;17.20;99.90;;;16.06;96.96;101152.41;5012393;28;20037;-74
2021/07/03 05:24:49;;;;;;;8.85;4.80;;;17.10;99.90;;;16.06;97.38;101152.41;4996296;28;20169;-74
2021/07/03 05:27:15;;;;;;;11.88;5.18;;;17.10;99.90;;;16.09;97.70;101142.44;4999085;28;20215;-74
2021/07/03 05:29:40;;;;;;;9.68;4.25;;;17.20;99.90;;;16.15;97.10;101147.34;5024033;28;20380;-74
2021/07/03 05:32:07;;;;;;;9.90;4.55;;;17.30;99.90;;;16.22;96.79;101145.16;5025296;28;20025;-74
2021/07/03 05:34:33;;;;;;;7.45;4.32;;;17.40;99.90;;;16.35;96.50;101137.28;5022207;28;20124;-74
2021/07/03 05:36:59;;;;;;;7.13;4.10;;;17.40;99.90;;;16.35;96.50;101143.44;5008072;28;20043;-74
2021/07/03 05:39:25;;;;;;;10.70;4.38;;;17.50;99.90;;;16.44;96.17;101141.97;5032628;28;20029;-74
2021/07/03 05:41:51;;;;;;;6.97;4.07;;;17.50;99.90;;;16.44;95.40;101141.97;5019878;28;20116;-74
2021/07/03 05:44:17;;;;;;;5.70;4.15;;;17.60;99.90;;;16.45;95.77;101142.84;5006318;28;20098;-74
2021/07/03 05:46:43;;;;;;;7.90;4.22;;;17.70;99.90;;;16.45;95.84;101138.34;5032545;28;20155;-74
2021/07/03 05:49:09;;;;;;;7.90;4.63;;;17.60;99.90;;;16.46;94.71;101133.88;5008701;28;20033;-74
2021/07/03 05:51:36;;;;;;;6.60;3.92;;;17.50;99.90;;;16.45;95.25;101135.69;5022786;28;20044;-74
2021/07/03 05:54:02;;;;;;;9.02;4.20;;;17.60;99.90;;;16.45;94.48;101135.69;5013727;28;20088;-74
2021/07/03 05:56:28;;;;;;;6.88;3.97;;;17.60;99.90;;;16.46;95.03;101131.22;5022130;28;20033;-74
2021/07/03 05:58:55;;;;;;;7.10;4.35;;;17.60;99.90;;;16.57;94.43;101134.91;5024535;28;20112;-73
2021/07/03 06:01:23;;;;;;;7.68;4.40;;;17.60;99.90;;;16.57;94.81;101137.56;5034367;28;20087;-77
2021/07/03 06:03:49;;;;;;;7.57;3.88;;;17.80;99.90;;;16.71;93.56;101138.47;5012811;28;20389;-74
2021/07/03 06:06:15;;;;;;;10.07;4.20;;;17.80;99.90;;;16.82;93.99;101138.63;5024996;28;20037;-75
2021/07/03 06:08:41;;;;;;;8.85;4.32;;;17.90;99.90;;;16.78;92.78;101140.63;5014906;28;20115;-75
2021/07/03 06:11:07;;;;;;;11.73;4.40;;;17.90;99.90;;;16.69;92.95;101143.88;4992950;28;20419;-75
2021/07/03 06:13:35;;;;;;;6.03;4.18;;;17.90;99.90;;;16.80;93.63;101145.88;5006086;28;20045;-75
2021/07/03 06:16:02;;;;;;;7.32;4.15;;;17.90;99.90;;;16.72;93.08;101150.81;4996913;28;20025;-75
2021/07/03 06:18:27;;;;;;;11.02;4.22;;;17.90;99.90;;;16.78;93.10;101140.63;5004268;28;20381;-75
2021/07/03 06:20:54;;;;;;;7.78;4.10;;;18.00;99.90;;;16.91;93.65;101151.34;5007940;28;20021;-75
2021/07/03 06:23:20;;;;;;;7.15;3.97;;;18.10;99.90;;;17.11;92.72;101158.00;5023045;28;20469;-75
2021/07/03 06:25:46;;;;;;;8.30;3.88;;;18.20;99.90;;;17.13;91.01;101155.22;5022879;28;20103;-75
2021/07/03 06:28:12;;;;;;;8.48;4.07;;;18.20;99.90;;;16.97;91.71;101164.22;5022773;28;20484;-75
2021/07/03 06:30:38;;;;;;;11.15;4.15;;;18.10;99.90;;;16.81;91.76;101155.56;5056714;28;20036;-75
2021/07/03 06:33:04;;;;;;;4.43;3.50;;;17.90;99.90;;;16.82;92.55;101162.56;5022468;28;20065;-75
2021/07/03 06:35:30;;;;;;;7.35;3.70;;;17.90;99.90;;;16.83;92.05;101163.44;5014283;28;20386;-75
2021/07/03 06:37:56;;;;;;;7.95;3.88;;;17.90;99.90;;;16.80;91.85;101164.47;5005872;28;20433;-75
2021/07/03 06:40:22;;;;;;;5.85;3.58;;;17.90;99.90;;;16.66;92.46;101172.50;5031799;28;20025;-75
2021/07/03 06:42:48;;;;;;;7.95;3.70;;;17.80;99.90;;;16.50;93.29;101165.50;5021340;28;20021;-74
2021/07/03 06:45:14;;;;;;;7.65;4.53;;;17.70;99.90;;;16.57;93.20;101165.97;5006308;28;20037;-75
2021/07/03 06:47:40;;;;;;;7.00;3.95;;;17.70;99.90;;;16.39;93.43;101170.63;5021514;28;20109;-75
2021/07/03 06:50:07;;;;;;;8.70;3.88;;;17.60;99.90;;;16.43;94.46;101164.19;5024063;28;20024;-75
2021/07/03 06:52:34;;;;;;;9.13;4.65;;;17.60;99.90;;;16.49;94.11;101174.44;5022059;28;20059;-74
2021/07/03 06:55:00;;;;;;;7.78;3.97;;;17.60;99.90;;;16.45;93.84;101170.25;5006569;28;20500;-75
2021/07/03 06:57:26;;;;;;;6.90;3.90;;;17.60;99.90;;;16.55;93.96;101166.06;5004527;28;20041;-75
2021/07/03 06:59:52;;;;;;;7.95;3.95;;;17.70;99.90;;;16.65;94.68;101162.78;5024022;28;20103;-76
2021/07/03 07:02:19;;;;;;;5.25;3.72;;;17.80;99.90;;;16.71;93.17;101173.88;5022908;28;20504;-74
2021/07/03 07:04:45;;;;;;;11.25;4.97;;;17.90;99.90;;;16.74;93.21;101167.53;5030925;28;20032;-74
2021/07/03 07:07:11;;;;;;;6.15;3.88;;;17.90;99.90;;;16.86;93.25;101165.88;5019490;28;20024;-75
2021/07/03 07:09:37;;;;;;;10.18;4.22;;;18.10;99.90;;;17.02;91.79;101162.13;5021793;28;20381;-75
2021/07/03 07:12:04;;;;;;;9.75;4.72;;;18.10;99.90;;;17.18;91.14;101175.22;5004023;28;20040;-74
2021/07/03 07:14:29;;;;;;;8.60;4.40;;;18.20;99.90;;;17.19;91.05;101168.97;5005602;28;20028;-74
2021/07/03 07:16:55;;;;;;;10.10;4.70;;;18.40;99.90;;;17.36;90.46;101178.44;5032443;28;20437;-76
2021/07/03 07:19:22;;;;;;;8.85;3.60;;;18.40;99.90;;;17.31;89.68;101183.25;5006128;28;20029;-75
2021/07/03 07:21:48;;;;;;;10.57;3.38;;;18.40;99.90;;;17.34;89.17;101180.41;5022054;28;20033;-74
2021/07/03 07:24:14;;;;;;;7.35;4.03;;;18.40;99.90;;;17.37;89.60;101182.00;5005946;28;20018;-74
2021/07/03 07:26:40;;;;;;;8.65;3.30;;;18.40;99.90;;;17.35;89.02;101183.91;5030003;28;20029;-74
2021/07/03 07:29:06;;;;;;;9.75;3.58;;;18.50;99.90;;;17.52;89.11;101191.59;5011153;28;20090;-76
2021/07/03 07:31:33;;;;;;;7.28;3.63;;;18.50;99.90;;;17.56;88.06;101190.41;5023095;28;20048;-74
2021/07/03 07:33:59;;;;;;;10.27;4.20;;;18.60;99.90;;;17.50;88.22;101187.34;5005096;28;20083;-75
2021/07/03 07:36:25;;;;;;;8.60;3.90;;;18.50;99.90;;;17.37;88.92;101190.81;5036483;28;20033;-75
2021/07/03 07:38:51;;;;;;;6.25;3.78;;;18.60;99.90;;;17.43;87.92;101194.88;5006897;28;20447;-75
2021/07/03 07:41:18;;;;;;;6.47;3.40;;;18.50;99.90;;;17.48;88.31;101190.09;5022335;28;20055;-74
2021/07/03 07:43:44;;;;;;;7.47;3.78;;;18.40;99.90;;;17.53;88.03;101184.44;5011416;28;20029;-75
2021/07/03 07:46:10;;;;;;;12.65;3.75;;;18.60;99.90;;;17.74;88.60;101192.78;5039575;28;20029;-75
2021/07/03 07:48:37;;;;;;;6.20;3.83;;;19.00;99.90;;;18.15;86.94;101187.22;5017953;28;20025;-75
2021/07/03 07:51:03;;;;;;;6.18;3.80;;;19.30;99.90;;;18.38;86.26;101182.03;5004478;28;20018;-75
2021/07/03 07:53:31;;;;;;;6.90;3.60;;;19.50;99.90;;;18.51;85.27;101174.88;5031487;28;20021;-75
2021/07/03 07:55:58;;;;;;;7.20;3.38;;;19.70;99.90;;;18.69;84.55;101182.50;5020015;28;20063;-75
2021/07/03 07:58:25;;;;;;;7.68;3.42;;;19.60;99.90;;;18.63;84.50;101181.97;5038418;28;20037;-75
2021/07/03 08:00:53;;;;;;;7.53;3.45;;;19.50;99.90;;;18.52;86.42;101189.06;5019387;28;20029;-75
2021/07/03 08:03:20;;;;;;;7.55;3.95;;;19.60;99.90;;;18.39;84.97;101181.09;5022372;28;20036;-74
2021/07/03 08:05:47;;;;;;;7.18;3.67;;;19.50;99.90;;;18.29;86.63;101185.38;5020880;28;20078;-75
2021/07/03 08:08:13;;;;;;;7.78;3.83;;;19.40;99.90;;;18.26;86.49;101189.13;5030564;28;20104;-75
2021/07/03 08:10:43;;;;;;;6.55;4.15;;;19.40;99.90;;;18.15;86.39;101181.91;5005663;28;20436;-75
2021/07/03 08:13:09;;;;;;;6.05;3.75;;;19.30;99.90;;;17.99;86.63;101189.25;5016103;28;20433;-75
2021/07/03 08:15:36;;;;;;;5.22;3.45;;;19.10;99.90;;;17.99;87.86;101187.47;5022255;28;20358;-74
2021/07/03 08:18:04;;;;;;;8.75;4.28;;;19.20;99.90;;;18.04;86.22;101184.47;5019430;28;20098;-75
2021/07/03 08:20:33;;;;;;;6.65;4.18;;;19.10;99.90;;;17.99;87.37;101182.13;5018095;28;20091;-75
2021/07/03 08:22:59;;;;;;;8.75;4.75;;;19.00;99.90;;;17.94;87.43;101184.25;5003076;28;20035;-75
2021/07/03 08:25:25;;;;;;;8.02;4.28;;;19.00;99.90;;;17.99;87.61;101183.94;5022074;28;20083;-76
2021/07/03 08:27:54;;;;;;;8.23;3.88;;;19.20;99.90;;;18.15;85.77;101176.56;5021606;28;20033;-75
2021/07/03 08:30:22;;;;;;;9.15;3.83;;;19.20;99.90;;;18.37;85.20;101180.34;5045384;28;20063;-75
2021/07/03 08:32:48;;;;;;;9.75;4.40;;;19.50;99.90;;;18.65;84.83;101179.19;5023613;28;20036;-76
2021/07/03 08:35:15;;;;;;;10.82;4.38;;;19.70;99.90;;;18.62;84.37;101176.78;5021157;28;20041;-75
2021/07/03 08:37:42;;;;;;;11.80;4.13;;;19.70;99.90;;;18.68;85.18;101186.97;5001375;28;20039;-75
2021/07/03 08:40:10;;;;;;;7.28;4.35;;;19.60;99.90;;;18.43;84.76;101186.09;5021962;28;20051;-75
2021/07/03 08:42:36;;;;;;;7.13;3.92;;;19.40;99.90;;;18.38;84.38;101187.38;5019815;28;20029;-75
2021/07/03 08:45:04;;;;;;;8.77;3.83;;;19.20;99.90;;;18.13;85.46;101196.28;5022507;28;20399;-75
2021/07/03 08:47:30;;;;;;;9.25;4.20;;;19.10;99.90;;;18.13;85.15;101191.81;5021577;28;20032;-75
2021/07/03 08:50:02;;;;;;;7.82;4.32;;;19.10;99.90;;;18.21;85.32;101188.63;5003437;28;20121;-75
2021/07/03 08:52:29;;;;;;;9.25;4.93;;;19.00;99.90;;;17.73;85.87;101189.25;4997146;28;20129;-74
2021/07/03 08:55:14;;;;;;;9.32;4.32;;;18.60;99.90;;;17.24;89.05;101181.97;5003467;28;20033;-74
2021/07/03 08:57:45;;;;;;;8.82;5.00;;;18.40;99.90;;;17.25;89.45;101183.66;5021140;28;20516;-75
2021/07/03 09:00:16;;;;;;;12.48;5.15;;;18.50;99.90;;;17.47;90.06;101184.84;5021919;28;20102;-74
2021/07/03 09:03:04;;;;;;;10.27;5.28;;;18.70;99.90;;;17.77;88.25;101185.41;4979126;28;20045;-74
2021/07/03 09:05:56;;;;;;;12.13;4.93;;;18.80;99.90;;;17.78;88.49;101197.78;4980520;28;20084;-75
2021/07/03 09:08:42;;;;;;;10.77;5.63;;;18.90;99.90;;;17.88;86.52;101191.84;4971815;28;20112;-74
2021/07/03 09:11:24;;;;;;;;;;;18.90;99.90;;;17.85;86.91;101184.91;4975508;28;20041;-74
2021/07/03 09:14:12;;;;;;;9.32;4.88;;;18.80;99.90;;;17.58;87.51;101196.50;5028866;28;20395;-74
2021/07/03 09:17:24;;;;;;;9.02;5.15;;;18.60;99.90;;;17.33;87.15;101191.97;4976760;28;20036;-73
2021/07/03 09:20:43;;;;;;;10.90;5.88;;;18.40;99.90;;;17.31;88.65;101196.56;4985558;28;20504;-75
2021/07/03 09:23:57;;;;;;;11.40;5.85;;;18.40;99.90;;;17.27;88.50;101189.72;4978303;28;20106;-75
2021/07/03 09:27:12;;;;;;;8.85;4.75;;;18.50;99.90;;;17.55;89.36;101188.69;4976797;28;20110;-75
2021/07/03 09:30:20;;;;;;;13.15;5.40;;;18.80;99.90;;;17.81;86.14;101194.03;4976293;28;20037;-75
2021/07/03 09:33:45;;;;;;;10.98;5.60;;;19.00;99.90;;;17.86;86.18;101199.94;4983485;28;20055;-75
2021/07/03 09:37:16;;;;;;;9.85;5.72;;;18.80;99.90;;;17.83;87.28;101189.50;4983498;28;20042;-74
2021/07/03 09:40:40;;;;;;;11.40;5.50;;;18.80;99.90;;;17.80;86.14;101187.88;4992956;28;20052;-75
2021/07/03 09:44:02;;;;;;;10.45;4.63;;;19.00;99.90;;;17.98;84.75;101187.56;4972633;28;20094;-75
2021/07/03 09:47:27;;;;;;;7.95;4.82;;;18.90;99.90;;;17.94;86.52;101180.75;4980708;28;20095;-75
2021/07/03 09:50:43;;;;;;;11.75;5.32;;;19.10;99.90;;;18.19;84.21;101178.06;4986607;28;20111;-74
2021/07/03 09:54:12;;;;;;;7.40;4.72;;;19.50;99.90;;;18.54;83.27;101187.13;4992837;28;20025;-75
2021/07/03 09:57:51;;;;;;;7.65;4.22;;;19.70;99.90;;;18.86;81.18;101182.13;4966209;28;20060;-75
2021/07/03 10:01:30;;;;;;;9.75;5.00;;;19.80;99.90;;;18.40;81.60;101186.31;4998864;28;20122;-74
2021/07/03 10:04:50;;;;;;;8.75;4.03;;;19.70;99.90;;;18.48;82.18;101185.75;4975642;28;20116;-74
2021/07/03 10:08:28;;;;;;;7.90;4.15;;;19.90;99.90;;;18.60;81.35;101181.34;4981412;28;20426;-74
2021/07/03 10:11:41;;;;;;;8.60;4.50;;;19.30;99.90;;;17.75;84.92;101190.00;4984275;28;20040;-74
2021/07/03 10:15:07;;;;;;;7.25;4.50;;;18.90;99.90;;;17.83;86.28;101185.00;4985642;28;21540;-74
2021/07/03 10:18:43;;;;;;;8.02;4.65;;;19.20;99.90;;;18.46;84.24;101185.00;4977888;28;20392;-75
2021/07/03 10:21:59;;;;;;;8.40;4.65;;;19.50;99.90;;;18.57;82.56;101182.41;4976305;28;20675;-74
2021/07/03 10:24:51;;;;;;;10.07;4.57;;;19.70;99.90;;;18.80;82.70;101182.59;4971261;28;20041;-74
2021/07/03 10:28:07;;;;;;;11.82;4.25;;;19.50;99.90;;;18.40;84.36;101189.00;4990098;28;20041;-75
2021/07/03 10:31:22;;;;;;;10.93;4.75;;;19.50;99.90;;;18.20;84.12;101185.06;4982920;28;20665;-74